Time;durP1;ratioP1;P1;durP2;ratioP2;P2;SDS_P1;SDS_P2;PMS_P1;PMS_P2;Temp;Humidity;BMP_temperature;BMP_pressure;BME280_temperature;BME280_humidity;BME280_pressure;Samples;Min_cycle;Max_cycle;Signal;HPM_P1;HPM_P2
2022/04/28 00:01:31;;;;;;;15.80;10.02;;;;;;;7.81;100.00;101294.25;21118108;28;20469;-73
2022/04/28 00:11:34;;;;;;;13.93;9.45;;;;;;;7.86;100.00;101295.16;21116290;28;20039;-73
2022/04/28 00:21:35;;;;;;;13.82;9.20;;;;;;;7.62;100.00;101297.53;21112142;28;20048;-73
2022/04/28 00:31:37;;;;;;;14.68;9.80;;;;;;;7.55;100.00;101293.97;21209572;22;20039;-67
2022/04/28 00:41:38;;;;;;;14.85;10.27;;;;;;;7.44;100.00;101288.63;21139397;28;20078;-67
2022/04/28 00:51:40;;;;;;;17.23;11.15;;;;;;;7.16;100.00;101296.97;21154670;28;20052;-66
2022/04/28 01:01:42;;;;;;;14.90;10.93;;;;;;;7.13;100.00;101294.31;21154948;28;20523;-65
2022/04/28 01:11:44;;;;;;;17.80;11.48;;;;;;;7.14;100.00;101293.50;21153712;28;20410;-66
2022/04/28 01:21:45;;;;;;;15.60;11.27;;;;;;;7.04;100.00;101299.41;21154413;28;20083;-65
2022/04/28 01:31:47;;;;;;;20.27;11.80;;;;;;;6.89;100.00;101300.94;21152156;28;20040;-66
2022/04/28 01:41:49;;;;;;;16.60;11.82;;;;;;;6.75;100.00;101302.50;21152769;28;20046;-65
2022/04/28 02:02:11;;;;;;;17.13;12.55;;;;;;;6.57;100.00;101304.84;21147521;28;20048;-65
2022/04/28 02:12:13;;;;;;;18.23;13.48;;;;;;;6.59;100.00;101311.81;21149620;28;20048;-65
2022/04/28 02:22:15;;;;;;;21.27;13.68;;;;;;;6.50;100.00;101313.38;21150360;28;20047;-65
2022/04/28 02:32:17;;;;;;;17.85;13.20;;;;;;;6.40;100.00;101325.38;21150246;28;20071;-66
2022/04/28 02:42:18;;;;;;;20.38;13.30;;;;;;;6.29;100.00;101335.63;21150063;28;20120;-65
2022/04/28 02:52:20;;;;;;;21.33;12.68;;;;;;;5.98;100.00;101330.72;21148811;28;20048;-65
2022/04/28 03:02:22;;;;;;;19.73;12.95;;;;;;;5.88;100.00;101334.84;21148316;28;20055;-65
2022/04/28 03:12:23;;;;;;;21.20;13.88;;;;;;;5.88;100.00;101340.91;21150193;28;20044;-65
2022/04/28 03:22:25;;;;;;;20.38;14.50;;;;;;;5.92;100.00;101341.88;21163056;28;20066;-65
2022/04/28 03:32:26;;;;;;;22.08;15.07;;;;;;;5.91;100.00;101341.00;21161606;28;20040;-65
2022/04/28 03:42:28;;;;;;;21.00;15.13;;;;;;;5.77;100.00;101346.78;21158942;28;20043;-65
2022/04/28 03:52:31;;;;;;;23.98;15.68;;;;;;;5.74;100.00;101346.69;21157415;28;20047;-65
2022/04/28 04:02:33;;;;;;;23.52;15.65;;;;;;;5.78;100.00;101367.59;21158167;28;20064;-64
2022/04/28 04:12:35;;;;;;;23.90;15.98;;;;;;;5.85;100.00;101372.06;21158323;28;20047;-65
2022/04/28 04:22:37;;;;;;;25.67;16.25;;;;;;;5.68;100.00;101389.03;21157332;28;20047;-65
2022/04/28 04:32:39;;;;;;;24.73;15.55;;;;;;;5.78;100.00;101396.16;21156378;28;20054;-64
2022/04/28 04:42:40;;;;;;;25.02;16.25;;;;;;;5.87;100.00;101403.28;21156091;28;20509;-64
2022/04/28 04:52:42;;;;;;;25.42;15.38;;;;;;;6.00;100.00;101413.09;21155516;28;20051;-64
2022/04/28 05:02:43;;;;;;;27.23;14.52;;;;;;;6.34;100.00;101418.94;21154207;28;20039;-66
2022/04/28 05:12:45;;;;;;;23.17;15.00;;;;;;;6.71;100.00;101430.84;21154023;28;20040;-65
2022/04/28 05:22:48;;;;;;;23.65;15.02;;;;;;;7.07;100.00;101437.47;21152976;28;20050;-67
2022/04/28 05:32:50;;;;;;;22.88;13.40;;;;;;;7.31;100.00;101450.00;21152328;28;20048;-65
2022/04/28 05:53:14;;;;;;;20.48;13.15;;;;;;;7.63;100.00;101466.94;21150190;28;20148;-63
2022/04/28 06:03:15;;;;;;;24.23;14.30;;;;;;;7.82;100.00;101470.69;21149941;28;20461;-64
2022/04/28 06:13:17;;;;;;;24.05;15.75;;;;;;;8.18;100.00;101480.66;21145296;28;20086;-63
2022/04/28 06:23:18;;;;;;;22.85;15.90;;;;;;;8.51;100.00;101494.09;21150272;28;20044;-63
2022/04/28 06:33:20;;;;;;;25.52;15.98;;;;;;;8.69;100.00;101494.28;21142285;28;20048;-63
2022/04/28 06:43:22;;;;;;;20.48;14.50;;;;;;;9.03;98.21;101492.84;21149886;28;20117;-63
2022/04/28 06:53:23;;;;;;;22.40;14.05;;;;;;;9.30;96.87;101496.53;21140360;28;20044;-65
2022/04/28 07:03:25;;;;;;;20.58;13.73;;;;;;;9.70;97.55;101501.13;21118551;28;20035;-63
2022/04/28 07:13:26;;;;;;;19.33;11.98;;;;;;;10.22;93.33;101500.50;21117171;28;20142;-63
2022/04/28 07:23:28;;;;;;;16.73;11.07;;;;;;;10.54;89.26;101505.88;21118077;28;20047;-64
2022/04/28 07:33:30;;;;;;;15.43;11.10;;;;;;;10.88;88.86;101509.41;21148510;28;20044;-65
2022/04/28 07:43:31;;;;;;;15.07;10.68;;;;;;;11.21;89.77;101507.63;21148700;28;20043;-65
2022/04/28 07:53:33;;;;;;;16.83;10.20;;;;;;;11.65;84.81;101520.72;21149293;28;20167;-64
2022/04/28 08:03:34;;;;;;;17.85;10.18;;;;;;;12.00;84.26;101523.25;21148659;28;20093;-64
2022/04/28 08:13:36;;;;;;;14.63;10.02;;;;;;;12.26;82.78;101517.00;21143820;28;20055;-64
2022/04/28 08:23:37;;;;;;;13.40;9.60;;;;;;;12.61;79.23;101514.22;21145712;28;20040;-65
2022/04/28 08:33:39;;;;;;;14.23;9.00;;;;;;;12.83;76.74;101522.81;21145028;28;20109;-65
2022/04/28 08:43:41;;;;;;;10.65;7.50;;;;;;;13.55;72.81;101528.34;21145122;28;20043;-64
2022/04/28 08:53:47;;;;;;;14.40;8.77;;;;;;;14.00;72.55;101515.59;21146167;28;20058;-65
2022/04/28 09:03:48;;;;;;;10.23;7.43;;;;;;;14.47;64.26;101518.50;21142002;28;20120;-65
2022/04/28 09:14:17;;;;;;;11.43;6.57;;;;;;;14.92;62.38;101522.25;21140142;28;20043;-65
2022/04/28 09:24:21;;;;;;;9.00;5.53;;;;;;;15.41;56.45;101505.59;21137028;28;20479;-65
2022/04/28 09:34:24;;;;;;;6.57;4.60;;;;;;;15.85;55.10;101507.41;21135914;28;20511;-65
2022/04/28 09:44:26;;;;;;;9.73;3.97;;;;;;;16.31;44.54;101487.09;21142348;28;20172;-65
2022/04/28 09:54:32;;;;;;;5.82;3.45;;;;;;;16.72;45.63;101480.91;21136575;28;20056;-69
2022/04/28 10:04:33;;;;;;;7.97;3.35;;;;;;;17.02;41.65;101479.28;21140276;28;20556;-67
2022/04/28 10:14:39;;;;;;;5.03;3.05;;;;;;;17.36;41.70;101478.41;21140038;28;20059;-68
2022/04/28 10:35:06;;;;;;;6.93;3.60;;;;;;;17.47;38.28;101481.63;21155876;28;20055;-65
2022/04/28 10:45:25;;;;;;;5.47;3.22;;;;;;;17.54;40.98;101477.06;21155985;28;20047;-65
2022/04/28 10:55:33;;;;;;;8.17;2.97;;;;;;;18.10;39.09;101464.84;21152842;28;20128;-65
2022/04/28 11:05:40;;;;;;;6.20;2.88;;;;;;;17.85;35.09;101466.50;21150435;28;20184;-67
2022/04/28 11:15:45;;;;;;;5.53;3.10;;;;;;;18.08;35.42;101458.72;21151106;28;20468;-67
2022/04/28 11:25:48;;;;;;;5.60;2.70;;;;;;;18.08;31.97;101453.44;21154175;28;20050;-68
2022/04/28 11:35:49;;;;;;;4.20;2.42;;;;;;;18.32;31.88;101450.94;21152778;28;20093;-67
2022/04/28 11:45:52;;;;;;;5.32;2.90;;;;;;;18.22;33.56;101454.81;21152197;28;20047;-68
2022/04/28 11:55:55;;;;;;;7.10;3.30;;;;;;;18.51;35.18;101452.09;21151497;28;20055;-68
2022/04/28 12:05:56;;;;;;;6.32;3.58;;;;;;;18.26;36.35;101440.53;21147652;28;20039;-70
2022/04/28 12:15:59;;;;;;;7.30;3.38;;;;;;;18.54;33.48;101440.50;21150733;28;20058;-67
2022/04/28 12:26:03;;;;;;;6.35;3.28;;;;;;;18.24;36.55;101431.75;21148814;28;20158;-68
2022/04/28 12:36:06;;;;;;;8.93;3.80;;;;;;;18.30;36.18;101428.91;21147418;28;20470;-67
2022/04/28 12:46:09;;;;;;;5.50;3.37;;;;;;;18.55;34.84;101421.94;21147618;28;20069;-67
2022/04/28 12:56:14;;;;;;;6.63;3.42;;;;;;;18.32;38.08;101419.13;21146669;28;20476;-68
2022/04/28 13:06:15;;;;;;;5.22;3.47;;;;;;;18.36;38.21;101397.78;21141517;28;20801;-69
2022/04/28 13:16:17;;;;;;;6.50;2.63;;;;;;;18.96;37.16;101379.88;21146995;28;20085;-68
2022/04/28 13:26:21;;;;;;;5.70;3.25;;;;;;;18.85;34.46;101374.94;21142962;28;20043;-68
2022/04/28 13:36:24;;;;;;;6.28;3.05;;;;;;;18.55;35.77;101375.97;21142211;28;20059;-66
2022/04/28 13:46:25;;;;;;;5.47;2.90;;;;;;;19.10;32.12;101364.34;21142834;28;20047;-66
2022/04/28 13:56:27;;;;;;;5.68;2.92;;;;;;;18.96;34.05;101353.34;21142342;28;20051;-66
2022/04/28 14:06:28;;;;;;;6.13;2.90;;;;;;;18.97;33.79;101349.75;21141256;28;20044;-66
2022/04/28 14:16:30;;;;;;;6.47;2.50;;;;;;;19.20;29.88;101341.84;21140749;28;20051;-66
2022/04/28 14:26:31;;;;;;;6.63;2.65;;;;;;;19.11;34.34;101344.81;21140960;28;20087;-66
2022/04/28 14:36:33;;;;;;;7.60;3.40;;;;;;;19.45;32.18;101335.63;21140401;28;20074;-66
2022/04/28 14:46:34;;;;;;;5.32;2.90;;;;;;;19.41;33.38;101328.72;21139505;28;20055;-66
2022/04/28 14:56:36;;;;;;;4.65;2.55;;;;;;;19.45;32.95;101330.31;21140080;28;20094;-65
2022/04/28 15:06:37;;;;;;;6.25;2.90;;;;;;;19.33;35.03;101331.66;21139296;28;20535;-66
2022/04/28 15:16:45;;;;;;;4.70;2.70;;;;;;;19.33;33.53;101341.41;21153652;28;20067;-66
2022/04/28 15:26:47;;;;;;;4.35;2.30;;;;;;;19.22;32.72;101316.13;21150826;28;20128;-65
2022/04/28 15:36:48;;;;;;;4.88;2.70;;;;;;;19.37;33.64;101312.03;21151459;28;20487;-66
2022/04/28 15:46:50;;;;;;;8.38;3.00;;;;;;;19.50;31.97;101301.81;21152449;28;20039;-66
2022/04/28 15:56:51;;;;;;;4.18;2.78;;;;;;;19.45;33.33;101307.28;21150133;28;20051;-66
2022/04/28 16:06:53;;;;;;;4.82;2.47;;;;;;;19.34;31.90;101312.13;21149588;28;20514;-66
2022/04/28 16:16:54;;;;;;;4.75;2.85;;;;;;;19.39;31.73;101299.53;21148944;28;20051;-66
2022/04/28 16:26:59;;;;;;;7.68;2.58;;;;;;;19.53;33.89;101317.59;21148782;28;20406;-66
2022/04/28 16:37:00;;;;;;;6.72;2.63;;;;;;;19.66;32.65;101308.28;21147376;28;20427;-66
2022/04/28 16:47:03;;;;;;;4.70;2.30;;;;;;;19.50;34.35;101301.81;21146782;28;20043;-65
2022/04/28 16:57:05;;;;;;;5.38;2.30;;;;;;;19.39;32.46;101303.97;21142979;28;20059;-66
2022/04/28 17:07:08;;;;;;;5.35;2.40;;;;;;;19.13;33.27;101313.78;21143869;28;20043;-67
2022/04/28 17:17:09;;;;;;;5.15;2.60;;;;;;;19.08;34.41;101320.19;21145252;28;20043;-66
2022/04/28 17:27:11;;;;;;;5.30;2.70;;;;;;;19.10;34.11;101316.56;21144729;28;20048;-68
2022/04/28 17:37:13;;;;;;;5.85;2.20;;;;;;;18.74;35.95;101328.50;21143082;28;20108;-68
2022/04/28 17:47:15;;;;;;;3.58;2.30;;;;;;;18.45;36.10;101322.38;21143110;28;20043;-69
2022/04/28 18:07:38;;;;;;;5.30;2.55;;;;;;;17.36;39.34;101328.38;21130852;28;20050;-69
2022/04/28 18:17:39;;;;;;;4.57;2.63;;;;;;;16.78;40.21;101331.78;21130821;28;20602;-69
2022/04/28 18:27:41;;;;;;;5.45;2.80;;;;;;;16.48;40.58;101350.16;21133647;28;20077;-69
2022/04/28 18:48:03;;;;;;;6.22;4.15;;;;;;;15.39;50.01;101364.91;21145669;28;20048;-68
2022/04/28 18:58:05;;;;;;;6.72;3.28;;;;;;;14.88;51.72;101379.03;21154911;28;20051;-68
2022/04/28 19:08:06;;;;;;;5.30;2.60;;;;;;;14.44;53.27;101390.31;21155788;28;20040;-71
2022/04/28 19:18:08;;;;;;;8.45;3.38;;;;;;;14.05;54.80;101408.44;21155063;28;20457;-70
2022/04/28 19:28:09;;;;;;;6.20;2.65;;;;;;;13.56;59.32;101416.97;21146169;28;20467;-66
2022/04/28 19:38:15;;;;;;;6.65;3.15;;;;;;;13.32;61.38;101427.78;21155158;28;20439;-66
2022/04/28 19:48:16;;;;;;;6.07;3.53;;;;;;;12.98;64.13;101435.97;21152438;28;20089;-66
2022/04/28 19:58:18;;;;;;;6.78;3.00;;;;;;;12.79;65.71;101436.97;21150442;28;20044;-65
2022/04/28 20:08:19;;;;;;;8.05;3.45;;;;;;;12.62;67.27;101455.53;21150801;28;20052;-66
2022/04/28 20:18:23;;;;;;;8.43;3.65;;;;;;;12.47;68.03;101453.88;21149719;28;20062;-66
2022/04/28 20:28:25;;;;;;;8.07;4.10;;;;;;;12.30;69.24;101450.47;21142243;28;20131;-66
2022/04/28 20:38:27;;;;;;;7.20;3.92;;;;;;;12.23;68.74;101444.38;21144443;28;20047;-66
2022/04/28 20:48:29;;;;;;;8.30;4.40;;;;;;;12.26;66.74;101454.00;21148582;28;20381;-68
2022/04/28 20:58:32;;;;;;;7.05;4.00;;;;;;;12.20;66.94;101457.53;21147389;28;20055;-68
2022/04/28 21:08:34;;;;;;;5.72;3.63;;;;;;;11.97;68.25;101460.25;21146026;28;20047;-70
2022/04/28 21:18:35;;;;;;;9.50;4.47;;;;;;;11.65;75.10;101468.25;21145168;28;20089;-69
2022/04/28 21:28:37;;;;;;;7.15;4.10;;;;;;;11.39;76.28;101470.91;21143684;28;20040;-70
2022/04/28 21:38:39;;;;;;;7.43;3.53;;;;;;;11.13;79.37;101472.72;21144647;28;20063;-70
2022/04/28 21:48:41;;;;;;;6.35;3.72;;;;;;;10.94;80.91;101475.34;21140869;28;20484;-69
2022/04/28 21:58:52;;;;;;;6.65;4.00;;;;;;;10.66;81.00;101489.28;21142436;28;20043;-69
2022/04/28 22:19:15;;;;;;;7.03;4.03;;;;;;;10.00;84.75;101500.41;21153944;28;20048;-70
2022/04/28 22:29:16;;;;;;;8.32;4.65;;;;;;;9.91;86.02;101486.41;21151915;28;20043;-69
2022/04/28 22:39:18;;;;;;;9.73;4.78;;;;;;;9.60;86.63;101496.72;21166439;28;20051;-69
2022/04/28 22:49:19;;;;;;;7.68;5.47;;;;;;;9.46;87.86;101493.16;21166710;28;20065;-69
2022/04/28 22:59:21;;;;;;;9.70;6.10;;;;;;;9.38;89.94;101497.44;21165766;28;20670;-69
2022/04/28 23:09:22;;;;;;;9.13;5.50;;;;;;;9.23;90.06;101492.97;21164187;28;20044;-69
2022/04/28 23:19:26;;;;;;;12.05;6.50;;;;;;;9.16;89.69;101478.16;21159426;28;20556;-69
2022/04/28 23:29:28;;;;;;;10.57;6.33;;;;;;;8.89;90.85;101464.00;21162576;28;20044;-68
2022/04/28 23:39:29;;;;;;;10.93;6.85;;;;;;;8.77;91.84;101461.28;21161917;28;20442;-68
2022/04/28 23:49:31;;;;;;;12.02;6.75;;;;;;;8.44;94.33;101459.25;21160980;28;20048;-68
2022/04/28 23:59:32;;;;;;;11.70;7.30;;;;;;;8.52;94.55;101461.91;21160557;28;20104;-68
